Time;durP1;ratioP1;P1;durP2;ratioP2;P2;SDS_P1;SDS_P2;PMS_P1;PMS_P2;Temp;Humidity;BMP_temperature;BMP_pressure;BME280_temperature;BME280_humidity;BME280_pressure;Samples;Min_cycle;Max_cycle;Signal;HPM_P1;HPM_P2
2022/06/08 00:01:20;;;;;;;;;;;15.80;1.00;;;;;;5095550;28;20003;-82
2022/06/08 00:03:51;;;;;;;;;;;15.70;1.00;;;;;;5072065;28;19923;-83
2022/06/08 00:06:16;;;;;;;;;;;15.60;1.00;;;;;;5097128;28;20359;-82
2022/06/08 00:08:42;;;;;;;;;;;15.50;1.00;;;;;;5072929;28;19919;-83
2022/06/08 00:11:08;;;;;;;;;;;15.50;1.00;;;;;;5078406;28;20003;-84
2022/06/08 00:13:33;;;;;;;;;;;15.40;1.00;;;;;;5070621;28;19912;-83
2022/06/08 00:15:59;;;;;;;;;;;15.40;1.00;;;;;;5078993;28;20355;-82
2022/06/08 00:18:25;;;;;;;;;;;15.30;1.00;;;;;;5074901;28;19912;-82
2022/06/08 00:20:50;;;;;;;;;;;15.30;1.00;;;;;;5096817;28;19912;-83
2022/06/08 00:23:16;;;;;;;;;;;15.20;1.00;;;;;;5073401;28;20006;-82
2022/06/08 00:25:41;;;;;;;;;;;15.10;1.00;;;;;;5074632;28;20421;-84
2022/06/08 00:28:07;;;;;;;;;;;15.10;1.00;;;;;;5088438;28;20444;-82
2022/06/08 00:30:32;;;;;;;;;;;15.00;1.00;;;;;;5075219;28;20007;-83
2022/06/08 00:32:58;;;;;;;;;;;15.00;1.00;;;;;;5070370;28;19914;-83
2022/06/08 00:35:24;;;;;;;;;;;14.90;1.00;;;;;;5094738;28;19908;-83
2022/06/08 00:37:49;;;;;;;;;;;14.90;1.00;;;;;;5069803;28;19908;-83
2022/06/08 00:40:18;;;;;;;;;;;14.80;1.00;;;;;;5096694;28;19908;-87
2022/06/08 00:42:43;;;;;;;;;;;14.80;1.00;;;;;;5075790;28;19913;-87
2022/06/08 00:45:11;;;;;;;;;;;14.70;1.00;;;;;;5078017;28;19916;-87
2022/06/08 00:47:48;;;;;;;;;;;14.70;1.00;;;;;;5070688;28;20019;-87
2022/06/08 00:50:15;;;;;;;;;;;14.70;1.00;;;;;;5070767;28;19923;-87
2022/06/08 00:52:42;;;;;;;;;;;14.60;1.00;;;;;;5065794;28;19916;-87
2022/06/08 00:55:09;;;;;;;;;;;14.60;1.00;;;;;;5068039;28;19917;-87
2022/06/08 00:57:38;;;;;;;;;;;14.60;1.00;;;;;;5089694;28;19939;-86
2022/06/08 01:00:18;;;;;;;;;;;14.60;1.00;;;;;;5058950;28;19921;-86
2022/06/08 01:02:43;;;;;;;;;;;14.50;1.00;;;;;;5082630;28;19908;-87
2022/06/08 01:05:21;;;;;;;;;;;14.50;1.00;;;;;;5091764;28;19912;-87
2022/06/08 01:07:47;;;;;;;;;;;14.50;1.00;;;;;;5094819;28;20018;-86
2022/06/08 01:10:17;;;;;;;;;;;14.50;1.00;;;;;;5084238;28;20007;-87
2022/06/08 01:12:43;;;;;;;;;;;14.50;1.00;;;;;;5084185;28;19930;-83
2022/06/08 01:15:17;;;;;;;;;;;14.50;1.00;;;;;;5069715;28;19908;-83
2022/06/08 01:17:42;;;;;;;;;;;14.50;1.00;;;;;;5081537;28;19934;-83
2022/06/08 01:20:10;;;;;;;;;;;14.50;1.00;;;;;;5077852;28;19912;-83
2022/06/08 01:22:36;;;;;;;;;;;14.50;1.00;;;;;;5092846;28;20018;-83
2022/06/08 01:25:02;;;;;;;;;;;14.50;1.00;;;;;;5096135;28;19978;-83
2022/06/08 01:27:33;;;;;;;;;;;14.50;1.00;;;;;;5099017;28;19919;-87
2022/06/08 01:30:19;;;;;;;;;;;14.60;1.00;;;;;;5078344;28;19920;-87
2022/06/08 01:33:03;;;;;;;;;;;14.50;1.00;;;;;;5070246;28;20008;-87
2022/06/08 01:35:39;;;;;;;;;;;14.50;1.00;;;;;;5108026;28;19908;-87
2022/06/08 01:38:08;;;;;;;;;;;14.50;1.00;;;;;;5071515;28;20248;-87
2022/06/08 01:40:42;;;;;;;;;;;14.50;1.00;;;;;;5089522;28;19912;-87
2022/06/08 01:43:25;;;;;;;;;;;14.50;1.00;;;;;;5077564;28;19908;-83
2022/06/08 01:45:53;;;;;;;;;;;14.50;1.00;;;;;;5085341;28;19921;-83
2022/06/08 01:48:26;;;;;;;;;;;14.50;1.00;;;;;;5077243;28;19908;-83
2022/06/08 01:51:11;;;;;;;;;;;14.60;1.00;;;;;;5087142;28;20275;-83
2022/06/08 01:53:48;;;;;;;;;;;14.60;1.00;;;;;;5107167;28;20341;-83
2022/06/08 01:56:17;;;;;;;;;;;14.60;1.00;;;;;;5093222;28;19918;-83
2022/06/08 01:59:06;;;;;;;;;;;14.70;1.00;;;;;;5074520;28;20003;-83
2022/06/08 02:01:49;;;;;;;;;;;14.70;1.00;;;;;;5081358;28;19940;-83
2022/06/08 02:04:15;;;;;;;;;;;14.80;1.00;;;;;;5081191;28;19913;-83
2022/06/08 02:06:45;;;;;;;;;;;14.80;1.00;;;;;;5090429;28;19977;-83
2022/06/08 02:09:22;;;;;;;;;;;14.90;1.00;;;;;;5093196;28;20275;-83
2022/06/08 02:11:50;;;;;;;;;;;14.90;1.00;;;;;;5068024;28;19916;-84
2022/06/08 02:14:19;;;;;;;;;;;14.90;1.00;;;;;;5108549;28;19908;-84
2022/06/08 02:16:50;;;;;;;;;;;14.80;1.00;;;;;;5108299;28;19912;-82
2022/06/08 02:19:27;;;;;;;;;;;14.80;1.00;;;;;;5076489;28;20332;-82
2022/06/08 02:21:59;;;;;;;;;;;14.80;1.00;;;;;;5080359;28;19916;-83
2022/06/08 02:24:30;;;;;;;;;;;14.70;1.00;;;;;;5076574;28;19954;-83
2022/06/08 02:26:58;;;;;;;;;;;14.70;1.00;;;;;;5081384;28;20571;-83
2022/06/08 02:29:29;;;;;;;;;;;14.70;1.00;;;;;;5094910;28;19961;-83
2022/06/08 02:32:00;;;;;;;;;;;14.60;1.00;;;;;;5082381;28;19924;-83
2022/06/08 02:34:29;;;;;;;;;;;14.70;1.00;;;;;;5076192;28;19912;-83
2022/06/08 02:36:58;;;;;;;;;;;14.70;1.00;;;;;;5083377;28;19927;-82
2022/06/08 02:39:35;;;;;;;;;;;14.70;1.00;;;;;;5090948;28;19912;-82
2022/06/08 02:42:12;;;;;;;;;;;14.70;1.00;;;;;;5093361;28;20007;-83
2022/06/08 02:44:39;;;;;;;;;;;14.70;1.00;;;;;;5089712;28;19916;-83
2022/06/08 02:47:16;;;;;;;;;;;14.70;1.00;;;;;;5094213;28;19936;-83
2022/06/08 02:49:42;;;;;;;;;;;14.80;1.00;;;;;;5080671;28;19919;-82
2022/06/08 02:52:17;;;;;;;;;;;14.80;1.00;;;;;;5075931;28;19912;-82
2022/06/08 02:54:42;;;;;;;;;;;14.80;1.00;;;;;;5063958;28;19967;-83
2022/06/08 02:57:08;;;;;;;;;;;14.80;1.00;;;;;;5076003;28;20302;-83
2022/06/08 02:59:37;;;;;;;;;;;14.80;1.00;;;;;;5080004;28;19912;-82
2022/06/08 03:02:07;;;;;;;;;;;14.80;1.00;;;;;;5093984;28;20279;-82
2022/06/08 03:04:36;;;;;;;;;;;14.80;1.00;;;;;;5085044;28;19919;-82
2022/06/08 03:07:13;;;;;;;;;;;14.80;1.00;;;;;;5089631;28;19936;-83
2022/06/08 03:09:39;;;;;;;;;;;14.70;1.00;;;;;;5082929;28;19912;-82
2022/06/08 03:12:08;;;;;;;;;;;14.60;1.00;;;;;;5067223;28;19916;-86
2022/06/08 03:14:34;;;;;;;;;;;14.60;1.00;;;;;;5076465;28;19909;-86
2022/06/08 03:17:04;;;;;;;;;;;14.70;1.00;;;;;;5072838;28;19982;-86
2022/06/08 03:19:31;;;;;;;;;;;14.70;1.00;;;;;;5076588;28;19908;-86
2022/06/08 03:21:57;;;;;;;;;;;14.70;1.00;;;;;;5089848;28;19916;-86
2022/06/08 03:24:23;;;;;;;7.95;5.40;;;14.70;1.00;;;;;;5074883;28;20472;-87
2022/06/08 03:26:53;;;;;;;10.43;6.10;;;14.70;1.00;;;;;;5068430;28;20208;-86
2022/06/08 03:29:19;;;;;;;8.50;5.63;;;14.80;1.00;;;;;;5075761;28;20481;-86
2022/06/08 03:31:45;;;;;;;11.57;5.80;;;14.80;1.00;;;;;;5074176;28;20830;-87
2022/06/08 03:34:10;;;;;;;8.90;5.17;;;14.80;1.00;;;;;;5075135;28;20633;-87
2022/06/08 03:36:36;;;;;;;7.70;5.60;;;14.90;1.00;;;;;;5073505;28;20184;-86
2022/06/08 03:39:03;;;;;;;8.03;5.40;;;15.00;1.00;;;;;;5064924;28;20174;-86
2022/06/08 03:41:29;;;;;;;10.07;5.60;;;15.00;1.00;;;;;;5073252;28;20178;-86
2022/06/08 03:43:54;;;;;;;12.33;5.60;;;15.10;1.00;;;;;;5065145;28;20423;-86
2022/06/08 03:46:20;;;;;;;6.77;5.57;;;15.20;1.00;;;;;;5092503;28;20222;-86
2022/06/08 03:48:46;;;;;;;12.77;6.50;;;15.30;1.00;;;;;;5064885;28;20277;-86
2022/06/08 03:51:15;;;;;;;10.00;6.63;;;15.30;1.00;;;;;;5068786;28;20598;-87
2022/06/08 03:53:45;;;;;;;14.13;5.73;;;15.40;1.00;;;;;;5109222;28;20453;-86
2022/06/08 03:56:14;;;;;;;11.90;6.33;;;15.40;1.00;;;;;;5069673;28;20958;-86
2022/06/08 03:58:40;;;;;;;6.13;5.03;;;15.60;1.00;;;;;;5066163;28;20410;-86
2022/06/08 04:01:06;;;;;;;11.13;5.90;;;15.70;1.00;;;;;;5067110;28;20864;-86
2022/06/08 04:03:32;;;;;;;8.90;6.40;;;15.70;1.00;;;;;;5075618;28;20919;-86
2022/06/08 04:05:58;;;;;;;7.10;5.83;;;15.80;1.00;;;;;;5071798;28;20218;-86
2022/06/08 04:08:25;;;;;;;12.30;6.30;;;15.80;1.00;;;;;;5075622;28;20484;-86
2022/06/08 04:10:51;;;;;;;10.03;6.10;;;16.00;1.00;;;;;;5069515;28;20452;-81
2022/06/08 04:13:17;;;;;;;7.67;6.23;;;16.00;1.00;;;;;;5079538;28;20424;-80
2022/06/08 04:15:42;;;;;;;6.90;6.00;;;16.10;1.00;;;;;;5089070;28;20415;-80
2022/06/08 04:18:10;;;;;;;8.43;5.20;;;16.10;1.00;;;;;;5084714;28;20391;-81
2022/06/08 04:20:36;;;;;;;9.13;5.20;;;16.20;1.00;;;;;;5092543;28;20182;-81
2022/06/08 04:23:03;;;;;;;8.10;5.80;;;16.30;1.00;;;;;;5085592;28;20434;-81
2022/06/08 04:25:30;;;;;;;8.67;5.73;;;16.40;1.00;;;;;;5087696;28;20396;-81
2022/06/08 04:27:56;;;;;;;7.57;5.83;;;16.50;1.00;;;;;;5084219;28;20424;-80
2022/06/08 04:30:26;;;;;;;13.13;5.70;;;16.50;1.00;;;;;;5088848;28;20449;-81
2022/06/08 04:32:52;;;;;;;10.27;5.53;;;16.60;1.00;;;;;;5081356;28;20423;-81
2022/06/08 04:35:19;;;;;;;11.73;5.33;;;16.60;1.00;;;;;;5077354;28;20818;-80
2022/06/08 04:37:45;;;;;;;5.87;5.20;;;16.60;1.00;;;;;;5073370;28;20427;-81
2022/06/08 04:40:15;;;;;;;7.37;5.07;;;16.60;1.00;;;;;;5088824;28;20408;-81
2022/06/08 04:42:42;;;;;;;7.80;5.27;;;16.60;1.00;;;;;;5108203;28;20425;-80
2022/06/08 04:45:09;;;;;;;5.10;4.57;;;16.60;1.00;;;;;;5093516;28;20487;-81
2022/06/08 04:47:35;;;;;;;7.90;5.47;;;16.60;1.00;;;;;;5096098;28;20413;-81
2022/06/08 04:50:02;;;;;;;8.50;5.20;;;16.60;1.00;;;;;;5092716;28;20449;-81
2022/06/08 04:52:27;;;;;;;8.53;6.07;;;16.60;1.00;;;;;;5085996;28;20425;-81
2022/06/08 04:54:53;;;;;;;8.80;5.47;;;16.60;1.00;;;;;;5094094;28;20481;-81
2022/06/08 04:57:19;;;;;;;8.83;5.77;;;16.60;1.00;;;;;;5082191;28;20422;-81
2022/06/08 04:59:44;;;;;;;13.63;5.70;;;16.60;1.00;;;;;;5080439;28;20637;-80
2022/06/08 05:02:10;;;;;;;11.57;5.43;;;16.60;1.00;;;;;;5087259;28;20170;-79
2022/06/08 05:04:36;;;;;;;9.60;5.60;;;16.50;1.00;;;;;;5095570;28;20188;-79
2022/06/08 05:07:03;;;;;;;8.07;5.43;;;16.50;1.00;;;;;;5087901;28;20427;-79
2022/06/08 05:09:28;;;;;;;10.30;5.30;;;16.50;1.00;;;;;;5095534;28;20416;-79
2022/06/08 05:11:54;;;;;;;6.27;5.50;;;16.50;1.00;;;;;;5081243;28;20429;-78
2022/06/08 05:14:20;;;;;;;7.80;6.03;;;16.60;1.00;;;;;;5071114;28;20200;-81
2022/06/08 05:16:46;;;;;;;6.10;5.37;;;16.60;1.00;;;;;;5086685;28;20171;-80
2022/06/08 05:19:11;;;;;;;9.27;5.83;;;16.60;1.00;;;;;;5095328;28;20182;-81
2022/06/08 05:21:37;;;;;;;8.27;6.47;;;16.60;1.00;;;;;;5090081;28;20214;-81
2022/06/08 05:24:03;;;;;;;15.93;6.37;;;16.60;1.00;;;;;;5069321;28;20532;-81
2022/06/08 05:26:29;;;;;;;14.20;4.67;;;16.60;1.00;;;;;;5067143;28;20184;-81
2022/06/08 05:28:55;;;;;;;8.93;5.97;;;16.60;1.00;;;;;;5075214;28;20396;-81
2022/06/08 05:31:20;;;;;;;12.60;6.00;;;16.70;1.00;;;;;;5075212;28;20191;-83
2022/06/08 05:33:46;;;;;;;9.57;5.63;;;16.70;1.00;;;;;;5074503;28;20652;-83
2022/06/08 05:36:16;;;;;;;12.57;6.50;;;16.80;1.00;;;;;;5068564;28;20213;-82
2022/06/08 05:38:42;;;;;;;10.53;5.80;;;16.80;1.00;;;;;;5063160;28;20498;-82
2022/06/08 05:41:07;;;;;;;10.97;6.03;;;16.80;1.00;;;;;;5083310;28;20510;-82
2022/06/08 05:43:33;;;;;;;9.00;5.13;;;17.00;1.00;;;;;;5081962;28;20176;-79
2022/06/08 05:45:59;;;;;;;5.90;4.50;;;16.90;1.00;;;;;;5082402;28;20182;-78
2022/06/08 05:48:24;;;;;;;9.00;5.13;;;17.00;1.00;;;;;;5092818;28;20532;-78
2022/06/08 05:50:50;;;;;;;12.53;6.00;;;17.10;1.00;;;;;;5085552;28;20522;-78
2022/06/08 05:53:16;;;;;;;10.23;6.60;;;17.10;1.00;;;;;;5078482;28;20194;-79
2022/06/08 05:55:42;;;;;;;9.50;6.60;;;17.00;1.00;;;;;;5069716;28;20204;-79
2022/06/08 05:58:09;;;;;;;12.73;5.60;;;17.00;1.00;;;;;;5078333;28;20421;-78
2022/06/08 06:00:37;;;;;;;10.63;6.37;;;17.00;1.00;;;;;;5078257;28;20426;-78
2022/06/08 06:03:03;;;;;;;8.77;6.20;;;17.10;1.00;;;;;;5076519;28;20495;-77
2022/06/08 06:05:32;;;;;;;10.30;6.23;;;17.00;1.00;;;;;;5056776;28;20405;-77
2022/06/08 06:07:58;;;;;;;9.10;6.80;;;17.10;1.00;;;;;;5081481;28;20559;-78
2022/06/08 06:10:27;;;;;;;12.43;6.67;;;17.00;1.00;;;;;;5080766;28;20459;-78
2022/06/08 06:12:54;;;;;;;11.83;6.50;;;17.10;1.00;;;;;;5072406;28;20785;-77
2022/06/08 06:15:20;;;;;;;7.00;6.30;;;17.30;1.00;;;;;;5070774;28;20394;-82
2022/06/08 06:17:45;;;;;;;20.80;6.03;;;17.30;1.00;;;;;;5094217;28;20409;-82
2022/06/08 06:20:12;;;;;;;9.07;6.30;;;17.40;1.00;;;;;;5052460;28;20402;-82
2022/06/08 06:22:37;;;;;;;10.50;7.33;;;17.50;1.00;;;;;;5040250;28;20187;-83
2022/06/08 06:25:06;;;;;;;13.03;6.50;;;17.70;1.00;;;;;;5072305;28;20404;-82
2022/06/08 06:27:32;;;;;;;9.43;6.30;;;17.70;1.00;;;;;;5085549;28;20670;-82
2022/06/08 06:29:58;;;;;;;9.80;6.10;;;17.90;1.00;;;;;;5076583;28;20424;-83
2022/06/08 06:32:30;;;;;;;12.80;6.13;;;18.20;1.00;;;;;;5071008;28;20472;-82
2022/06/08 06:34:58;;;;;;;7.27;5.80;;;18.50;99.90;;;;;;5094106;28;20410;-83
2022/06/08 06:37:24;;;;;;;8.50;5.40;;;18.80;99.90;;;;;;5082261;28;20428;-83
2022/06/08 06:39:51;;;;;;;5.53;4.30;;;19.00;99.90;;;;;;5066474;28;20455;-83
2022/06/08 06:42:20;;;;;;;9.20;4.90;;;19.20;99.90;;;;;;5082863;28;20386;-83
2022/06/08 06:44:46;;;;;;;9.00;4.03;;;19.40;99.90;;;;;;5093839;28;20422;-78
2022/06/08 06:47:12;;;;;;;11.67;3.50;;;19.50;99.90;;;;;;5093227;28;20746;-78
2022/06/08 06:49:38;;;;;;;12.23;5.10;;;19.70;99.90;;;;;;5089089;28;20178;-79
2022/06/08 06:52:05;;;;;;;7.93;4.40;;;19.80;99.90;;;;;;5093412;28;20460;-79
2022/06/08 06:54:32;;;;;;;5.17;4.17;;;19.90;99.90;;;;;;5093129;28;20438;-79
2022/06/08 06:56:58;;;;;;;8.40;4.80;;;19.90;99.90;;;;;;5069128;28;20512;-78
2022/06/08 06:59:24;;;;;;;7.40;3.40;;;20.00;99.90;;;;;;5074521;28;20384;-83
2022/06/08 07:01:50;;;;;;;12.77;4.40;;;20.00;99.90;;;;;;5087428;28;20399;-83
2022/06/08 07:04:18;;;;;;;14.17;3.67;;;20.00;99.90;;;;;;5075532;28;20176;-84
2022/06/08 07:06:44;;;;;;;4.90;3.20;;;20.20;99.90;;;;;;5082128;28;20170;-83
2022/06/08 07:09:10;;;;;;;5.30;3.80;;;20.40;99.90;;;;;;5062938;28;20433;-84
2022/06/08 07:11:39;;;;;;;5.00;3.43;;;20.60;99.90;;;;;;5073368;28;20420;-83
2022/06/08 07:14:08;;;;;;;3.80;3.00;;;20.60;99.90;;;;;;5067856;28;20171;-79
2022/06/08 07:16:38;;;;;;;6.67;2.93;;;20.70;99.90;;;;;;5074313;28;20407;-78
2022/06/08 07:19:09;;;;;;;4.27;2.53;;;21.00;99.90;;;;;;5062504;28;20945;-79
2022/06/08 07:21:38;;;;;;;5.50;2.90;;;21.10;99.90;;;;;;5062970;28;20434;-78
2022/06/08 07:24:24;;;;;;;7.47;3.00;;;21.20;99.90;;;;;;5071341;28;20491;-78
2022/06/08 07:26:53;;;;;;;3.70;3.23;;;21.10;99.90;;;;;;5063829;28;20422;-79
2022/06/08 07:29:23;;;;;;;14.27;3.70;;;21.10;99.90;;;;;;5069874;28;20478;-79
2022/06/08 07:31:52;;;;;;;5.60;2.90;;;21.00;99.90;;;;;;5083222;28;20444;-79
2022/06/08 07:34:55;;;;;;;5.63;2.67;;;21.00;99.90;;;;;;5085644;28;20466;-79
2022/06/08 07:40:43;;;;;;;8.10;3.17;;;21.40;99.90;;;;;;5076229;28;20432;-80
2022/06/08 07:46:30;;;;;;;5.30;2.43;;;21.50;99.90;;;;;;5071618;28;20242;-80
2022/06/08 07:52:18;;;;;;;3.47;2.60;;;21.30;99.90;;;;;;5078591;28;20286;-78
2022/06/08 07:54:45;;;;;;;11.90;2.37;;;21.30;99.90;;;;;;5073144;28;20512;-78
2022/06/08 07:57:21;;;;;;;12.00;2.10;;;21.10;99.90;;;;;;5067066;28;20431;-77
2022/06/08 08:03:08;;;;;;;5.80;2.40;;;21.30;99.90;;;;;;5079607;28;20429;-82
2022/06/08 08:15:42;;;;;;;4.30;2.23;;;22.10;99.90;;;;;;5063815;28;20412;-78
2022/06/08 08:18:14;;;;;;;7.93;3.10;;;22.20;99.90;;;;;;5078141;28;20450;-78
2022/06/08 08:20:40;;;;;;;3.73;2.70;;;22.10;99.90;;;;;;5081663;28;20868;-78
2022/06/08 08:23:06;;;;;;;5.53;3.23;;;22.30;99.90;;;;;;5074764;28;20459;-78
2022/06/08 08:25:32;;;;;;;9.10;3.47;;;22.40;99.90;;;;;;5075070;28;22238;-78
2022/06/08 08:27:58;;;;;;;6.40;2.20;;;22.70;99.90;;;;;;5080380;28;20877;-78
2022/06/08 08:30:27;;;;;;;3.20;2.10;;;23.00;99.90;;;;;;5094960;28;20679;-79
2022/06/08 08:32:52;;;;;;;5.83;1.97;;;23.20;99.90;;;;;;5077635;28;20472;-78
2022/06/08 08:35:21;;;;;;;4.70;1.80;;;23.40;99.90;;;;;;5088675;28;20923;-78
2022/06/08 08:37:47;;;;;;;5.40;2.07;;;23.30;99.90;;;;;;5091313;28;20171;-79
2022/06/08 08:40:38;;;;;;;5.90;2.00;;;23.30;99.90;;;;;;5065825;28;20932;-78
2022/06/08 08:43:07;;;;;;;7.40;2.40;;;23.30;99.90;;;;;;5068978;28;20426;-79
2022/06/08 08:45:42;;;;;;;13.17;2.80;;;23.50;99.90;;;;;;5087938;28;20508;-82
2022/06/08 08:48:19;;;;;;;10.07;1.80;;;23.50;99.90;;;;;;5088319;28;20426;-82
2022/06/08 08:50:52;;;;;;;5.40;1.80;;;23.70;99.90;;;;;;5069082;28;20483;-82
2022/06/08 08:53:29;;;;;;;3.13;1.73;;;24.00;99.90;;;;;;5076657;28;21031;-82
2022/06/08 08:56:03;;;;;;;5.00;1.90;;;23.80;99.90;;;;;;5065018;28;20438;-82
2022/06/08 08:58:34;;;;;;;5.30;2.47;;;23.90;99.90;;;;;;5080978;28;20470;-83
2022/06/08 09:01:07;;;;;;;9.27;2.73;;;23.70;99.90;;;;;;5095906;28;20413;-79
2022/06/08 09:03:40;;;;;;;3.63;2.20;;;23.90;99.90;;;;;;5086843;28;20420;-79
2022/06/08 09:06:18;;;;;;;7.00;2.23;;;24.30;99.90;;;;;;5085188;28;20516;-79
2022/06/08 09:12:12;;;;;;;17.20;2.10;;;25.10;99.90;;;;;;5080993;28;20466;-79
2022/06/08 09:15:00;;;;;;;6.70;2.33;;;24.80;99.90;;;;;;5090789;28;20861;-79
2022/06/08 09:17:40;;;;;;;4.37;2.10;;;24.80;99.90;;;;;;5067761;28;20424;-82
2022/06/08 09:20:26;;;;;;;3.73;1.93;;;25.00;99.90;;;;;;5095106;28;20420;-83
2022/06/08 09:22:54;;;;;;;12.20;1.80;;;25.20;99.90;;;;;;5081154;28;20396;-83
2022/06/08 09:25:32;;;;;;;8.13;1.63;;;25.40;99.90;;;;;;5075911;28;20418;-82
2022/06/08 09:27:59;;;;;;;4.23;2.10;;;25.10;99.90;;;;;;5089785;28;20459;-83
2022/06/08 09:30:27;;;;;;;7.13;2.00;;;25.00;99.90;;;;;;5086172;28;20458;-83
2022/06/08 09:32:53;;;;;;;7.30;1.40;;;24.60;99.90;;;;;;5086396;28;20427;-83
2022/06/08 09:35:24;;;;;;;5.20;1.20;;;24.50;99.90;;;;;;5078609;28;20792;-83
2022/06/08 09:37:53;;;;;;;3.77;1.50;;;24.20;99.90;;;;;;5082288;28;20182;-82
2022/06/08 09:40:38;;;;;;;9.10;1.80;;;24.10;99.90;;;;;;5087128;28;20415;-82
2022/06/08 09:43:23;;;;;;;6.20;1.37;;;23.90;99.90;;;;;;5087904;28;20427;-83
2022/06/08 09:46:00;;;;;;;1.83;1.40;;;23.90;99.90;;;;;;5083486;28;20427;-78
2022/06/08 09:51:56;;;;;;;7.60;1.57;;;24.20;99.90;;;;;;5086228;28;20488;-79
2022/06/08 09:54:30;;;;;;;2.70;1.50;;;24.30;99.90;;;;;;5070094;28;20425;-79
2022/06/08 09:57:33;;;;;;;3.00;1.50;;;24.30;99.90;;;;;;5079082;28;20768;-79
2022/06/08 10:00:17;;;;;;;9.47;1.63;;;24.50;99.90;;;;;;5083778;28;20930;-79
2022/06/08 10:02:58;;;;;;;18.30;2.10;;;24.80;99.90;;;;;;5079153;28;20986;-78
2022/06/08 10:05:41;;;;;;;7.03;2.00;;;24.90;99.90;;;;;;5081841;28;20427;-78
2022/06/08 10:08:35;;;;;;;9.40;1.60;;;25.30;99.90;;;;;;5091227;28;20411;-79
2022/06/08 10:11:34;;;;;;;22.97;2.83;;;25.30;99.90;;;;;;5086968;28;20561;-79
2022/06/08 10:14:39;;;;;;;1.63;1.40;;;25.40;99.90;;;;;;5054151;28;20437;-79
2022/06/08 10:17:14;;;;;;;25.33;2.20;;;25.70;99.90;;;;;;5075368;28;20502;-78
2022/06/08 10:19:45;;;;;;;7.67;1.90;;;26.00;99.90;;;;;;5106780;28;20830;-79
2022/06/08 10:22:12;;;;;;;9.70;1.83;;;25.90;99.90;;;;;;5081141;28;20519;-79
2022/06/08 10:25:24;;;;;;;3.97;1.63;;;25.70;99.90;;;;;;5093091;28;20431;-79
2022/06/08 10:27:55;;;;;;;5.80;2.00;;;25.90;99.90;;;;;;5035993;28;20472;-79
2022/06/08 10:30:39;;;;;;;9.50;2.17;;;26.40;99.90;;;;;;5031537;28;20476;-79
2022/06/08 10:33:12;;;;;;;2.73;1.70;;;26.50;99.90;;;;;;5039232;28;20420;-83
2022/06/08 10:35:42;;;;;;;7.60;1.80;;;26.10;99.90;;;;;;5047696;28;20474;-83
2022/06/08 10:38:19;;;;;;;5.43;1.53;;;25.80;99.90;;;;;;5039761;28;20533;-83
2022/06/08 10:40:53;;;;;;;3.20;1.40;;;25.20;99.90;;;;;;5037684;28;20975;-83
2022/06/08 10:43:28;;;;;;;4.53;1.40;;;24.80;99.90;;;;;;5051816;28;20784;-89
2022/06/08 10:46:03;;;;;;;7.50;1.40;;;24.90;99.90;;;;;;5032674;28;20425;-80
2022/06/08 10:48:48;;;;;;;6.47;1.60;;;24.90;99.90;;;;;;5014653;28;20433;-80
2022/06/08 10:51:14;;;;;;;3.50;1.40;;;25.10;99.90;;;;;;5021674;28;20908;-80
2022/06/08 10:56:28;;;;;;;5.13;1.40;;;25.70;99.90;;;;;;5031759;28;20245;-82
2022/06/08 10:59:05;;;;;;;9.33;1.30;;;26.20;99.90;;;;;;5038899;28;20465;-81
2022/06/08 11:01:49;;;;;;;5.20;1.50;;;26.50;99.90;;;;;;5038264;28;20708;-81
2022/06/08 11:04:30;;;;;;;5.33;1.53;;;26.80;99.90;;;;;;5072529;28;20840;-80
2022/06/08 11:07:05;;;;;;;4.97;1.07;;;26.70;99.90;;;;;;5082656;28;20422;-81
2022/06/08 11:09:34;;;;;;;2.70;0.93;;;26.70;99.90;;;;;;5093008;28;20427;-81
2022/06/08 11:12:04;;;;;;;11.20;1.20;;;26.40;99.90;;;;;;5085021;28;20558;-81
2022/06/08 11:14:52;;;;;;;6.73;1.43;;;26.20;99.90;;;;;;5086421;28;20433;-81
2022/06/08 11:17:34;;;;;;;2.80;1.20;;;26.50;99.90;;;;;;5085726;28;20415;-89
2022/06/08 11:20:34;;;;;;;2.13;1.20;;;26.70;99.90;;;;;;5061497;28;20440;-90
2022/06/08 11:23:18;;;;;;;8.13;1.50;;;27.00;99.90;;;;;;4990999;28;20441;-89
2022/06/08 11:25:50;;;;;;;10.70;1.77;;;26.70;99.90;;;;;;4961721;28;20447;-89
2022/06/08 11:28:34;;;;;;;5.37;1.43;;;26.50;99.90;;;;;;4970537;28;20431;-89
2022/06/08 11:31:08;;;;;;;5.63;1.60;;;26.20;99.90;;;;;;4957931;28;22003;-89
2022/06/08 11:34:12;;;;;;;4.93;1.70;;;26.00;99.90;;;;;;4971950;28;20408;-81
2022/06/08 11:36:43;;;;;;;4.27;1.27;;;25.90;99.90;;;;;;4970782;28;20443;-80
2022/06/08 11:39:42;;;;;;;4.97;1.13;;;25.80;99.90;;;;;;4971673;28;20424;-80
2022/06/08 11:42:29;;;;;;;11.43;1.50;;;25.80;99.90;;;;;;4971740;28;20434;-80
2022/06/08 11:45:23;;;;;;;4.30;1.30;;;25.80;99.90;;;;;;4971720;28;20422;-81
2022/06/08 11:47:57;;;;;;;6.57;1.33;;;25.60;99.90;;;;;;4971512;28;20893;-81
2022/06/08 11:50:42;;;;;;;2.60;1.33;;;25.50;99.90;;;;;;4990877;28;20474;-81
2022/06/08 11:53:16;;;;;;;24.80;1.60;;;25.40;99.90;;;;;;4990906;28;20545;-81
2022/06/08 11:55:55;;;;;;;8.13;1.70;;;25.30;99.90;;;;;;4985430;28;20463;-81
2022/06/08 11:58:28;;;;;;;3.67;1.40;;;25.40;99.90;;;;;;5068722;28;20410;-80
2022/06/08 12:01:00;;;;;;;2.20;1.30;;;25.30;99.90;;;;;;5076679;28;20478;-81
2022/06/08 12:03:40;;;;;;;2.97;1.10;;;25.30;99.90;;;;;;5065110;28;20468;-80
2022/06/08 12:06:14;;;;;;;4.93;1.20;;;25.30;99.90;;;;;;5063281;28;20455;-80
2022/06/08 12:08:44;;;;;;;6.50;1.20;;;25.20;99.90;;;;;;5075742;28;20446;-80
2022/06/08 12:11:12;;;;;;;2.00;1.10;;;25.20;99.90;;;;;;5075113;28;20858;-80
2022/06/08 12:13:39;;;;;;;5.70;1.50;;;25.10;99.90;;;;;;5057174;28;20429;-80
2022/06/08 12:16:37;;;;;;;2.30;1.20;;;25.00;99.90;;;;;;5039783;28;20440;-80
2022/06/08 12:19:54;;;;;;;8.30;1.30;;;24.80;99.90;;;;;;5055577;28;20419;-80
2022/06/08 12:22:51;;;;;;;1.40;1.10;;;24.50;99.90;;;;;;5056494;28;20911;-79
2022/06/08 12:25:23;;;;;;;6.00;1.50;;;24.30;99.90;;;;;;5056926;28;20761;-81
2022/06/08 12:27:58;;;;;;;3.80;1.43;;;24.20;99.90;;;;;;5056479;28;20433;-82
2022/06/08 12:31:14;;;;;;;3.37;1.30;;;24.10;99.90;;;;;;5056810;28;20440;-82
2022/06/08 12:33:39;;;;;;;4.50;1.47;;;23.90;99.90;;;;;;5056083;28;20441;-86
2022/06/08 12:43:10;;;;;;;7.43;1.33;;;23.70;99.90;;;;;;5057366;28;20926;-90
2022/06/08 12:46:09;;;;;;;2.87;1.53;;;23.70;99.90;;;;;;5039043;28;20797;-89
2022/06/08 12:49:21;;;;;;;2.53;1.10;;;23.60;99.90;;;;;;5028007;28;20653;-87
2022/06/08 12:52:18;;;;;;;6.43;1.50;;;23.60;99.90;;;;;;5072729;28;20995;-89
2022/06/08 12:58:07;;;;;;;2.47;1.30;;;23.40;99.90;;;;;;5062806;28;20442;-91
2022/06/08 13:03:55;;;;;;;3.60;1.30;;;23.40;99.90;;;;;;5057074;28;20782;-91
2022/06/08 13:09:44;;;;;;;3.50;1.50;;;23.20;99.90;;;;;;5056929;28;20464;-92
2022/06/08 13:12:14;;;;;;;5.67;1.30;;;23.20;99.90;;;;;;5073160;28;20474;-91
2022/06/08 13:18:02;;;;;;;3.60;1.33;;;23.10;99.90;;;;;;5056174;28;20464;-79
2022/06/08 13:21:14;;;;;;;13.60;1.53;;;23.00;99.90;;;;;;5055806;28;20794;-80
2022/06/08 13:24:15;;;;;;;9.60;1.63;;;22.80;99.90;;;;;;5048931;28;20419;-79
2022/06/08 13:27:02;;;;;;;3.93;1.27;;;22.90;99.90;;;;;;5035842;28;20994;-79
2022/06/08 13:32:49;;;;;;;3.13;1.17;;;23.10;99.90;;;;;;5059831;28;20446;-81
2022/06/08 13:38:37;;;;;;;3.70;1.10;;;22.90;99.90;;;;;;5055173;28;20191;-78
2022/06/08 13:47:53;;;;;;;38.57;2.40;;;23.20;99.90;;;;;;5057204;28;20445;-83
2022/06/08 13:50:36;;;;;;;6.37;1.20;;;23.50;99.90;;;;;;5058160;28;20505;-81
2022/06/08 13:53:38;;;;;;;9.30;1.70;;;23.70;99.90;;;;;;5049252;28;20437;-82
2022/06/08 13:59:34;;;;;;;6.90;1.50;;;23.90;99.90;;;;;;5049932;28;20459;-75
2022/06/08 14:02:26;;;;;;;13.73;1.73;;;23.80;99.90;;;;;;5064580;28;20826;-75
2022/06/08 14:12:59;;;;;;;8.70;1.57;;;23.80;99.90;;;;;;5056695;28;20412;-78
2022/06/08 14:17:51;;;;;;;5.47;1.50;;;23.50;99.90;;;;;;5060395;28;20430;-79
2022/06/08 14:20:29;;;;;;;5.17;1.40;;;23.50;99.90;;;;;;5054988;28;20443;-75
2022/06/08 14:22:56;;;;;;;8.13;1.30;;;23.50;99.90;;;;;;5054209;28;20917;-75
2022/06/08 14:25:26;;;;;;;5.23;1.90;;;23.60;99.90;;;;;;5054408;28;20431;-75
2022/06/08 14:27:55;;;;;;;5.60;1.67;;;23.70;99.90;;;;;;5055719;28;20405;-75
2022/06/08 14:30:22;;;;;;;3.60;1.40;;;23.80;99.90;;;;;;5074501;28;20390;-76
2022/06/08 14:32:56;;;;;;;4.77;1.30;;;23.80;99.90;;;;;;5057771;28;20468;-76
2022/06/08 14:35:50;;;;;;;9.80;1.93;;;23.70;99.90;;;;;;5054848;28;20403;-81
2022/06/08 14:38:57;;;;;;;3.77;1.60;;;23.60;99.90;;;;;;5049003;28;20488;-80
2022/06/08 14:41:38;;;;;;;8.80;1.77;;;23.30;99.90;;;;;;5040911;28;20425;-90
2022/06/08 14:47:27;;;;;;;9.00;1.67;;;22.70;99.90;;;;;;5056996;28;20757;-90
2022/06/08 14:53:17;;;;;;;16.23;2.17;;;21.90;99.90;;;;;;5060596;28;20437;-89
2022/06/08 14:58:28;;;;;;;6.07;1.80;;;21.50;99.90;;;;;;5063042;28;20502;-88
2022/06/08 15:00:56;;;;;;;5.80;2.03;;;21.30;99.90;;;;;;5086770;28;20415;-89
2022/06/08 15:03:27;;;;;;;2.10;1.80;;;21.00;99.90;;;;;;5082894;28;20216;-82
2022/06/08 15:05:54;;;;;;;7.80;1.97;;;20.80;99.90;;;;;;5058998;28;20426;-80
2022/06/08 15:08:20;;;;;;;8.30;1.43;;;20.50;99.90;;;;;;5062441;28;21048;-81